createdAt,value
2023-01-03T00:06:06.436Z,13.93
2023-01-03T00:21:08.365Z,12.25
2023-01-03T00:36:11.142Z,15.10
2023-01-03T00:51:19.809Z,12.77
2023-01-03T01:06:28.754Z,12.27
2023-01-03T01:36:37.757Z,7.57
2023-01-03T01:51:39.930Z,7.25
2023-01-03T02:06:42.233Z,7.63
2023-01-03T02:22:15.957Z,7.88
2023-01-03T02:37:28.982Z,7.82
2023-01-03T02:52:32.521Z,6.97
2023-01-03T03:07:40.898Z,4.93
2023-01-03T03:23:15.031Z,5.27
2023-01-03T03:38:25.221Z,3.75
2023-01-03T03:53:32.100Z,3.55
2023-01-03T04:08:34.103Z,4.10
2023-01-03T04:23:36.038Z,2.97
2023-01-03T04:38:38.150Z,3.17
2023-01-03T04:53:40.079Z,3.35
2023-01-03T05:08:44.303Z,3.35
2023-01-03T05:24:04.671Z,3.42
2023-01-03T05:39:07.056Z,2.90
2023-01-03T05:54:12.803Z,3.28
2023-01-03T06:09:14.888Z,3.38
2023-01-03T06:24:16.844Z,3.78
2023-01-03T06:39:18.758Z,3.10
2023-01-03T06:54:29.094Z,4.38
2023-01-03T07:09:41.120Z,7.50
2023-01-03T07:24:43.106Z,5.72
2023-01-03T07:39:45.068Z,7.80
2023-01-03T07:54:47.039Z,6.30
2023-01-03T08:10:07.545Z,7.18
2023-01-03T08:25:09.901Z,9.88
2023-01-03T08:40:13.008Z,8.32
2023-01-03T08:55:15.021Z,9.00
2023-01-03T09:10:17.072Z,8.07
2023-01-03T09:25:19.217Z,11.38
2023-01-03T09:40:21.226Z,10.25
2023-01-03T09:55:47.824Z,8.40
2023-01-03T10:11:12.108Z,10.93
2023-01-03T10:26:14.323Z,7.25
2023-01-03T10:41:32.764Z,7.50
2023-01-03T10:56:36.072Z,7.90
2023-01-03T11:11:42.664Z,8.63
2023-01-03T11:26:59.162Z,10.27
2023-01-03T11:42:24.164Z,7.47
2023-01-03T11:57:36.330Z,8.00
2023-01-03T12:12:43.981Z,6.32
2023-01-03T12:27:54.575Z,8.60
2023-01-03T12:43:14.300Z,4.88
2023-01-03T12:58:39.865Z,4.28
2023-01-03T13:13:56.843Z,4.38
2023-01-03T13:29:35.739Z,5.35
2023-01-03T13:44:37.698Z,6.40
2023-01-03T13:59:44.819Z,7.07
2023-01-03T14:14:59.174Z,6.63
2023-01-03T14:30:01.388Z,16.42
2023-01-03T14:45:06.963Z,9.30
2023-01-03T15:00:33.620Z,8.85
2023-01-03T15:15:39.749Z,24.35
2023-01-03T15:30:48.911Z,22.27
2023-01-03T15:46:03.485Z,26.83
2023-01-03T16:01:07.810Z,19.23
2023-01-03T16:16:11.288Z,15.45
2023-01-03T16:31:21.914Z,13.93
2023-01-03T16:46:25.808Z,45.70
2023-01-03T17:01:28.002Z,43.10
2023-01-03T17:16:32.745Z,26.67
2023-01-03T17:31:34.941Z,22.67
2023-01-03T17:46:55.779Z,79.43
2023-01-03T18:01:58.595Z,38.50
2023-01-03T18:17:00.631Z,54.17
2023-01-03T18:32:35.743Z,56.20
2023-01-03T18:47:37.728Z,55.58
2023-01-03T19:02:39.896Z,58.20
2023-01-03T19:17:42.007Z,60.25
2023-01-03T19:32:49.192Z,48.60
2023-01-03T19:47:51.233Z,48.10
2023-01-03T20:02:56.755Z,41.95
2023-01-03T20:17:59.415Z,41.97
2023-01-03T20:33:01.401Z,47.70
2023-01-03T20:48:03.540Z,45.70
2023-01-03T21:03:05.769Z,45.95
2023-01-03T21:18:09.885Z,50.45
2023-01-03T21:33:17.509Z,47.83
2023-01-03T21:48:19.434Z,48.75
2023-01-03T22:03:40.210Z,53.42
2023-01-03T22:18:42.546Z,49.92
2023-01-03T22:33:49.057Z,57.08
2023-01-03T22:48:51.069Z,57.60
2023-01-03T23:03:54.814Z,49.20
2023-01-03T23:18:56.937Z,53.00
2023-01-03T23:33:59.980Z,61.40
2023-01-03T23:49:02.015Z,54.75
